Time;durP1;ratioP1;P1;durP2;ratioP2;P2;SDS_P1;SDS_P2;PMS_P1;PMS_P2;Temp;Humidity;BMP_temperature;BMP_pressure;BME280_temperature;BME280_humidity;BME280_pressure;Samples;Min_cycle;Max_cycle;Signal;HPM_P1;HPM_P2
2022/04/30 00:00:51;;;;;;;5.50;3.70;;;8.50;99.90;;;;;;5094980;28;20505;-68
2022/04/30 00:03:17;;;;;;;3.40;3.10;;;8.50;99.90;;;;;;5113322;28;20298;-64
2022/04/30 00:05:42;;;;;;;6.60;3.70;;;8.40;99.90;;;;;;5113854;28;20169;-63
2022/04/30 00:08:08;;;;;;;7.73;3.63;;;8.40;99.90;;;;;;5095630;28;20409;-63
2022/04/30 00:10:37;;;;;;;8.40;4.30;;;8.50;99.90;;;;;;5112826;28;20169;-63
2022/04/30 00:13:12;;;;;;;5.27;3.63;;;8.50;99.90;;;;;;5095456;28;20438;-63
2022/04/30 00:15:38;;;;;;;8.23;3.83;;;8.30;99.90;;;;;;5113753;28;20458;-69
2022/04/30 00:18:05;;;;;;;6.17;3.70;;;8.30;99.90;;;;;;5113263;28;20422;-63
2022/04/30 00:20:32;;;;;;;5.13;3.63;;;8.30;99.90;;;;;;5112306;28;20430;-67
2022/04/30 00:22:58;;;;;;;5.13;3.70;;;8.30;99.90;;;;;;5113759;28;21012;-68
2022/04/30 00:25:23;;;;;;;4.00;3.70;;;8.30;99.90;;;;;;5113805;28;20408;-63
2022/04/30 00:27:50;;;;;;;4.17;3.40;;;8.30;99.90;;;;;;5099398;28;20213;-67
2022/04/30 00:30:16;;;;;;;11.97;3.60;;;8.30;99.90;;;;;;5116831;28;20300;-64
2022/04/30 00:32:42;;;;;;;4.43;3.97;;;8.30;99.90;;;;;;5117551;28;20468;-67
2022/04/30 00:35:08;;;;;;;6.10;4.47;;;8.20;99.90;;;;;;5098589;28;20179;-67
2022/04/30 00:37:34;;;;;;;4.70;3.57;;;8.20;99.90;;;;;;5117606;28;20408;-63
2022/04/30 00:40:00;;;;;;;6.07;3.53;;;8.20;99.90;;;;;;5116850;28;20186;-67
2022/04/30 00:42:25;;;;;;;4.50;3.30;;;8.10;99.90;;;;;;5117395;28;20190;-67
2022/04/30 00:44:51;;;;;;;3.63;3.07;;;8.10;99.90;;;;;;5117366;28;20591;-63
2022/04/30 00:47:18;;;;;;;7.33;3.30;;;8.00;99.90;;;;;;5099411;28;20530;-68
2022/04/30 00:49:45;;;;;;;9.97;3.43;;;8.00;99.90;;;;;;5116557;28;20226;-68
2022/04/30 00:52:15;;;;;;;7.77;3.33;;;8.00;99.90;;;;;;5116729;28;20467;-63
2022/04/30 00:54:41;;;;;;;6.07;3.77;;;7.90;99.90;;;;;;5098905;28;20443;-64
2022/04/30 00:57:11;;;;;;;4.50;3.07;;;7.80;99.90;;;;;;5117280;28;20423;-63
2022/04/30 00:59:40;;;;;;;4.00;3.30;;;7.80;99.90;;;;;;5116446;28;20411;-63
2022/04/30 01:02:09;;;;;;;7.30;3.60;;;7.80;99.90;;;;;;5117061;28;20433;-63
2022/04/30 01:04:35;;;;;;;4.90;3.83;;;7.80;99.90;;;;;;5098756;28;20461;-67
2022/04/30 01:07:08;;;;;;;4.27;3.97;;;7.70;99.90;;;;;;5116538;28;20396;-68
2022/04/30 01:09:38;;;;;;;4.03;3.23;;;7.70;99.90;;;;;;5115463;28;20179;-67
2022/04/30 01:12:08;;;;;;;8.07;3.33;;;7.70;99.90;;;;;;5116972;28;20506;-67
2022/04/30 01:14:35;;;;;;;5.10;3.53;;;7.70;99.90;;;;;;5116935;28;20406;-67
2022/04/30 01:17:05;;;;;;;6.13;3.70;;;7.60;99.90;;;;;;5116886;28;20390;-64
2022/04/30 01:19:32;;;;;;;4.57;3.90;;;7.50;99.90;;;;;;5116061;28;20407;-63
2022/04/30 01:22:01;;;;;;;4.17;3.80;;;7.50;99.90;;;;;;5116767;28;20438;-64
2022/04/30 01:24:30;;;;;;;6.33;3.60;;;7.40;99.90;;;;;;5116315;28;20816;-66
2022/04/30 01:26:58;;;;;;;5.70;3.40;;;7.40;99.90;;;;;;5115438;28;20406;-67
2022/04/30 01:29:27;;;;;;;4.30;3.90;;;7.30;99.90;;;;;;5097472;28;20756;-61
2022/04/30 01:37:25;;;;;;;6.77;3.73;;;7.10;99.90;;;;;;5115860;28;20406;-63
2022/04/30 01:40:03;;;;;;;3.60;3.27;;;6.90;99.90;;;;;;5115724;28;20471;-67
2022/04/30 01:42:31;;;;;;;4.37;3.17;;;6.90;99.90;;;;;;5115895;28;20443;-61
2022/04/30 01:44:58;;;;;;;4.00;3.70;;;6.90;99.90;;;;;;5115895;28;20478;-65
2022/04/30 01:47:25;;;;;;;4.87;3.27;;;6.80;99.90;;;;;;5116265;28;20391;-68
2022/04/30 01:49:51;;;;;;;7.00;3.37;;;6.70;99.90;;;;;;5115315;28;20448;-65
2022/04/30 01:52:17;;;;;;;5.10;3.53;;;6.70;99.90;;;;;;5115808;28;20431;-61
2022/04/30 01:54:43;;;;;;;4.17;3.87;;;6.70;99.90;;;;;;5116147;28;20412;-61
2022/04/30 01:57:08;;;;;;;3.93;3.60;;;6.60;99.90;;;;;;5116013;28;20430;-62
2022/04/30 01:59:34;;;;;;;3.67;3.37;;;6.60;99.90;;;;;;5115163;28;20414;-65
2022/04/30 02:02:02;;;;;;;3.77;3.47;;;6.60;99.90;;;;;;5115609;28;20417;-65
2022/04/30 02:04:30;;;;;;;4.83;3.63;;;6.50;99.90;;;;;;5116028;28;20541;-61
2022/04/30 02:07:01;;;;;;;4.90;3.70;;;6.60;99.90;;;;;;5115825;28;20446;-61
2022/04/30 02:09:28;;;;;;;3.70;3.07;;;6.50;99.90;;;;;;5114871;28;20390;-67
2022/04/30 02:12:01;;;;;;;5.00;3.33;;;6.50;99.90;;;;;;5115797;28;20450;-66
2022/04/30 02:14:30;;;;;;;3.60;3.40;;;6.50;99.90;;;;;;5115779;28;20757;-63
2022/04/30 02:16:57;;;;;;;5.07;3.80;;;6.60;99.90;;;;;;5115798;28;20755;-68
2022/04/30 02:20:18;;;;;;;3.50;3.20;;;6.60;99.90;;;;;;5114558;28;20872;-68
2022/04/30 02:22:18;;;;;;;4.17;3.80;;;6.60;99.90;;;;;;5114885;28;20449;-63
2022/04/30 02:24:45;;;;;;;3.53;3.23;;;6.60;99.90;;;;;;5095135;28;20451;-63
2022/04/30 02:27:12;;;;;;;4.80;3.70;;;6.60;99.90;;;;;;5076950;28;20429;-67
2022/04/30 02:29:38;;;;;;;2.80;2.60;;;6.60;99.90;;;;;;5094079;28;20408;-66
2022/04/30 02:32:04;;;;;;;4.00;3.60;;;6.60;99.90;;;;;;5095020;28;20459;-61
2022/04/30 02:34:30;;;;;;;3.80;3.50;;;6.60;99.90;;;;;;5094941;28;20439;-63
2022/04/30 02:36:55;;;;;;;7.97;4.30;;;6.60;99.90;;;;;;5094966;28;20820;-66
2022/04/30 02:39:21;;;;;;;5.90;3.43;;;6.60;99.90;;;;;;5080918;28;20185;-63
2022/04/30 02:41:47;;;;;;;4.43;3.60;;;6.60;99.90;;;;;;5115021;28;20657;-67
2022/04/30 02:44:13;;;;;;;3.77;3.47;;;6.70;99.90;;;;;;5115142;28;20194;-64
2022/04/30 02:46:39;;;;;;;4.23;3.93;;;6.70;99.90;;;;;;5115060;28;20927;-67
2022/04/30 02:49:04;;;;;;;3.87;3.57;;;6.60;99.90;;;;;;5113667;28;20526;-63
2022/04/30 02:51:30;;;;;;;3.80;3.50;;;6.60;99.90;;;;;;5114428;28;20270;-65
2022/04/30 02:53:55;;;;;;;4.30;3.73;;;6.60;99.90;;;;;;5114932;28;20161;-63
2022/04/30 02:56:21;;;;;;;5.57;3.73;;;6.70;99.90;;;;;;5114271;28;20177;-67
2022/04/30 03:01:33;;;;;;;5.70;3.50;;;6.60;99.90;;;;;;5114644;28;20174;-64
2022/04/30 03:03:59;;;;;;;8.83;3.43;;;6.60;99.90;;;;;;5114802;28;20508;-67
2022/04/30 03:06:25;;;;;;;3.63;3.10;;;6.60;99.90;;;;;;5114904;28;20740;-67
2022/04/30 03:08:50;;;;;;;4.43;4.03;;;6.60;99.90;;;;;;5113916;28;20410;-68
2022/04/30 03:11:19;;;;;;;4.80;4.37;;;6.60;99.90;;;;;;5114820;28;20584;-67
2022/04/30 03:13:45;;;;;;;3.40;3.13;;;6.60;99.90;;;;;;5113728;28;20192;-64
2022/04/30 03:21:44;;;;;;;3.67;3.33;;;6.50;99.90;;;;;;5114376;28;20410;-61
2022/04/30 03:24:11;;;;;;;3.17;2.87;;;6.40;99.90;;;;;;5114390;28;21020;-65
2022/04/30 03:26:37;;;;;;;4.07;3.70;;;6.40;99.90;;;;;;5114533;28;20395;-65
2022/04/30 03:29:03;;;;;;;4.17;3.20;;;6.40;99.90;;;;;;5113037;28;20414;-65
2022/04/30 03:31:32;;;;;;;3.50;3.17;;;6.30;99.90;;;;;;5114319;28;20406;-61
2022/04/30 03:33:58;;;;;;;4.33;3.40;;;6.20;99.90;;;;;;5113750;28;20494;-61
2022/04/30 03:36:23;;;;;;;3.53;3.33;;;6.20;99.90;;;;;;5114289;28;20490;-60
2022/04/30 03:38:49;;;;;;;3.10;2.77;;;6.10;99.90;;;;;;5113270;28;20261;-61
2022/04/30 03:41:18;;;;;;;2.73;2.50;;;6.10;99.90;;;;;;5114081;28;20165;-61
2022/04/30 03:43:43;;;;;;;2.50;2.30;;;6.10;99.90;;;;;;5113815;28;20220;-61
2022/04/30 03:46:09;;;;;;;3.33;3.13;;;6.00;99.90;;;;;;5113629;28;20442;-61
2022/04/30 03:48:35;;;;;;;3.23;2.93;;;6.00;99.90;;;;;;5113231;28;20169;-61
2022/04/30 03:51:01;;;;;;;4.50;2.87;;;6.00;99.90;;;;;;5095239;28;20168;-60
2022/04/30 03:53:26;;;;;;;3.60;3.30;;;5.90;99.90;;;;;;5113901;28;20193;-60
2022/04/30 03:55:53;;;;;;;2.93;2.73;;;5.90;99.90;;;;;;5114039;28;20169;-61
2022/04/30 03:58:19;;;;;;;2.80;2.60;;;5.90;99.90;;;;;;5113779;28;20241;-66
2022/04/30 04:00:46;;;;;;;3.83;3.63;;;5.90;99.90;;;;;;5112663;28;20402;-62
2022/04/30 04:03:12;;;;;;;3.20;3.00;;;5.90;99.90;;;;;;5113445;28;20450;-65
2022/04/30 04:05:38;;;;;;;5.10;3.37;;;5.80;99.90;;;;;;5114022;28;20395;-65
2022/04/30 04:08:10;;;;;;;3.40;3.20;;;5.80;99.90;;;;;;5113699;28;20402;-66
2022/04/30 04:10:36;;;;;;;3.13;2.90;;;5.90;99.90;;;;;;5112633;28;20156;-65
2022/04/30 04:18:30;;;;;;;3.57;2.80;;;5.90;99.90;;;;;;5112744;28;20489;-67
2022/04/30 04:20:56;;;;;;;3.60;3.30;;;5.90;99.90;;;;;;5113744;28;20400;-65
2022/04/30 04:23:22;;;;;;;3.67;3.30;;;5.90;99.90;;;;;;5113501;28;20527;-61
2022/04/30 04:26:00;;;;;;;3.20;2.90;;;5.90;99.90;;;;;;5094989;28;20493;-61
2022/04/30 04:28:27;;;;;;;3.70;3.40;;;5.90;99.90;;;;;;5113302;28;20403;-66
2022/04/30 04:30:52;;;;;;;3.00;2.80;;;6.00;99.90;;;;;;5112914;28;20391;-61
2022/04/30 04:33:18;;;;;;;3.23;3.03;;;6.00;99.90;;;;;;5113524;28;20437;-65
2022/04/30 04:35:44;;;;;;;4.57;2.97;;;6.10;99.90;;;;;;5094919;28;20222;-61
2022/04/30 04:38:09;;;;;;;3.70;3.03;;;6.10;99.90;;;;;;5095393;28;20195;-61
2022/04/30 04:40:35;;;;;;;10.00;2.93;;;6.00;99.90;;;;;;5112580;28;20173;-63
2022/04/30 04:43:00;;;;;;;3.37;3.10;;;6.10;99.90;;;;;;5112873;28;20183;-66
2022/04/30 04:45:27;;;;;;;2.77;2.67;;;6.10;99.90;;;;;;5113510;28;20165;-65
2022/04/30 04:47:53;;;;;;;3.60;3.30;;;6.20;99.90;;;;;;5113545;28;20161;-65
2022/04/30 04:50:19;;;;;;;3.50;3.20;;;6.20;99.90;;;;;;5112478;28;20406;-61
2022/04/30 04:52:46;;;;;;;3.50;3.20;;;6.20;99.90;;;;;;5112924;28;20483;-64
2022/04/30 04:55:12;;;;;;;3.40;3.13;;;6.30;99.90;;;;;;5113472;28;20399;-60
2022/04/30 04:57:38;;;;;;;3.50;3.20;;;6.40;99.90;;;;;;5113444;28;20790;-67
2022/04/30 05:00:06;;;;;;;4.13;2.77;;;6.40;99.90;;;;;;5112691;28;20204;-63
2022/04/30 05:02:32;;;;;;;3.90;3.60;;;6.40;99.90;;;;;;5112649;28;20467;-64
2022/04/30 05:04:57;;;;;;;4.37;3.40;;;6.50;99.90;;;;;;5113353;28;20651;-67
2022/04/30 05:07:25;;;;;;;4.10;3.80;;;6.60;99.90;;;;;;5113175;28;20175;-63
2022/04/30 05:09:51;;;;;;;3.73;3.43;;;6.70;99.90;;;;;;5112432;28;20157;-67
2022/04/30 05:12:16;;;;;;;3.93;3.63;;;6.80;99.90;;;;;;5112878;28;20461;-67
2022/04/30 05:14:42;;;;;;;5.00;3.97;;;6.90;99.90;;;;;;5116456;28;20416;-63
2022/04/30 05:17:07;;;;;;;4.23;3.80;;;7.00;99.90;;;;;;5117048;28;20502;-63
2022/04/30 05:19:33;;;;;;;6.00;4.17;;;7.10;99.90;;;;;;5115637;28;20256;-67
2022/04/30 05:22:00;;;;;;;8.93;3.73;;;7.20;99.90;;;;;;5116771;28;20645;-67
2022/04/30 05:24:29;;;;;;;7.00;4.30;;;7.40;99.90;;;;;;5116311;28;20450;-67
2022/04/30 05:26:54;;;;;;;7.37;4.40;;;7.40;99.90;;;;;;5116720;28;20407;-67
2022/04/30 05:29:20;;;;;;;9.80;4.30;;;7.50;99.90;;;;;;5115850;28;20403;-63
2022/04/30 05:31:45;;;;;;;5.70;4.53;;;7.60;99.90;;;;;;5116546;28;20192;-63
2022/04/30 05:34:12;;;;;;;5.03;4.07;;;7.80;99.90;;;;;;5116544;28;20175;-63
2022/04/30 05:36:38;;;;;;;6.00;4.23;;;7.80;99.90;;;;;;5116563;28;20231;-67
2022/04/30 05:39:04;;;;;;;5.50;4.50;;;7.80;99.90;;;;;;5115162;28;20409;-64
2022/04/30 05:41:30;;;;;;;4.80;4.40;;;7.80;99.90;;;;;;5097624;28;20454;-63
2022/04/30 05:43:56;;;;;;;4.50;4.10;;;7.80;99.90;;;;;;5097986;28;20500;-63
2022/04/30 05:46:22;;;;;;;6.17;4.73;;;7.90;99.90;;;;;;5116414;28;20502;-63
2022/04/30 05:48:48;;;;;;;6.97;4.90;;;7.90;99.90;;;;;;5115309;28;20653;-64
2022/04/30 05:51:13;;;;;;;5.00;4.50;;;8.00;99.90;;;;;;5097912;28;20421;-64
2022/04/30 05:53:39;;;;;;;9.80;5.47;;;8.00;99.90;;;;;;5116127;28;20190;-63
2022/04/30 05:56:05;;;;;;;6.60;5.93;;;8.10;99.90;;;;;;5115813;28;20172;-64
2022/04/30 05:58:31;;;;;;;7.27;6.00;;;8.10;99.90;;;;;;5114827;28;20555;-68
2022/04/30 06:00:56;;;;;;;6.13;5.33;;;8.10;99.90;;;;;;5116100;28;20403;-69
2022/04/30 06:03:22;;;;;;;6.70;6.00;;;8.10;99.90;;;;;;5115714;28;20664;-64
2022/04/30 06:05:48;;;;;;;6.60;5.40;;;8.20;99.90;;;;;;5116149;28;20165;-64
2022/04/30 06:08:13;;;;;;;6.37;5.63;;;8.20;99.90;;;;;;5116229;28;20522;-64
2022/04/30 06:10:39;;;;;;;11.73;6.87;;;8.40;99.90;;;;;;5115062;28;20240;-68
2022/04/30 06:13:05;;;;;;;6.80;6.00;;;8.30;99.90;;;;;;5115123;28;20189;-65
2022/04/30 06:15:31;;;;;;;6.97;6.27;;;8.20;99.90;;;;;;5115492;28;20638;-63
2022/04/30 06:17:56;;;;;;;9.73;6.87;;;8.20;99.90;;;;;;5097511;28;20180;-63
2022/04/30 06:20:22;;;;;;;8.47;7.00;;;8.30;99.90;;;;;;5114830;28;20428;-67
2022/04/30 06:22:48;;;;;;;7.87;7.10;;;8.30;99.90;;;;;;5115544;28;20197;-68
2022/04/30 06:25:13;;;;;;;9.03;7.10;;;8.30;99.90;;;;;;5115284;28;20197;-64
2022/04/30 06:27:40;;;;;;;9.77;7.47;;;8.30;99.90;;;;;;5115811;28;20163;-68
2022/04/30 06:30:07;;;;;;;9.23;6.50;;;8.40;99.90;;;;;;5095536;28;20195;-63
2022/04/30 06:32:33;;;;;;;10.70;7.23;;;8.50;99.90;;;;;;5115305;28;20416;-68
2022/04/30 06:34:59;;;;;;;7.60;6.10;;;8.60;99.90;;;;;;5096979;28;20922;-67
2022/04/30 06:37:25;;;;;;;10.13;7.47;;;8.70;99.90;;;;;;5115272;28;20405;-63
2022/04/30 06:39:51;;;;;;;8.67;7.60;;;8.70;99.90;;;;;;5114275;28;20175;-63
2022/04/30 06:42:17;;;;;;;9.40;6.90;;;8.80;99.90;;;;;;5115212;28;20183;-63
2022/04/30 06:44:42;;;;;;;9.80;6.50;;;8.80;99.90;;;;;;5115056;28;20504;-68
2022/04/30 06:47:08;;;;;;;6.80;6.10;;;8.80;99.90;;;;;;5114522;28;20176;-65
2022/04/30 06:49:34;;;;;;;10.47;8.13;;;8.90;99.90;;;;;;5095643;28;20637;-68
2022/04/30 06:51:59;;;;;;;13.03;7.13;;;8.90;99.90;;;;;;5114922;28;20188;-68
2022/04/30 06:57:11;;;;;;;11.40;7.10;;;9.00;99.90;;;;;;5109300;28;20192;-63
2022/04/30 06:59:44;;;;;;;7.80;6.63;;;9.10;99.90;;;;;;5100610;28;20428;-63
2022/04/30 07:02:17;;;;;;;14.60;7.50;;;9.00;99.90;;;;;;5114998;28;21031;-68
2022/04/30 07:04:44;;;;;;;8.00;5.90;;;9.00;99.90;;;;;;5114875;28;20457;-68
2022/04/30 07:07:10;;;;;;;14.53;7.10;;;9.10;99.90;;;;;;5114553;28;20750;-64
2022/04/30 07:09:37;;;;;;;7.27;6.57;;;9.20;99.90;;;;;;5113644;28;20376;-68
2022/04/30 07:12:06;;;;;;;10.67;7.47;;;9.20;99.90;;;;;;5114674;28;20776;-67
2022/04/30 07:14:35;;;;;;;11.37;6.67;;;9.20;99.90;;;;;;5114390;28;20440;-64
2022/04/30 07:17:04;;;;;;;12.50;7.77;;;9.30;99.90;;;;;;5114240;28;20474;-68
2022/04/30 07:19:30;;;;;;;7.87;7.17;;;9.30;99.90;;;;;;5113540;28;20399;-69
2022/04/30 07:21:56;;;;;;;13.13;7.77;;;9.30;99.90;;;;;;5096040;28;20444;-69
2022/04/30 07:24:21;;;;;;;7.97;6.43;;;9.40;99.90;;;;;;5114562;28;20199;-64
2022/04/30 07:26:47;;;;;;;9.10;6.70;;;9.50;99.90;;;;;;5113941;28;20176;-64
2022/04/30 07:29:12;;;;;;;11.77;6.90;;;9.70;99.90;;;;;;5113511;28;20506;-69
2022/04/30 07:31:39;;;;;;;7.57;6.57;;;9.60;99.90;;;;;;5114236;28;20176;-64
2022/04/30 07:34:04;;;;;;;9.30;7.00;;;9.70;99.90;;;;;;5113966;28;20277;-64
2022/04/30 07:36:31;;;;;;;8.77;6.90;;;9.70;99.90;;;;;;5113833;28;20406;-63
2022/04/30 07:38:57;;;;;;;6.60;5.43;;;9.70;99.90;;;;;;5113457;28;20164;-69
2022/04/30 07:41:23;;;;;;;6.63;5.90;;;9.90;99.90;;;;;;5114208;28;20377;-66
2022/04/30 07:43:50;;;;;;;11.20;6.67;;;9.90;99.90;;;;;;5113548;28;20424;-68
2022/04/30 07:46:16;;;;;;;6.27;5.67;;;10.00;99.90;;;;;;5114473;28;20541;-68
2022/04/30 07:48:41;;;;;;;9.47;6.27;;;10.00;99.90;;;;;;5113299;28;20477;-64
2022/04/30 07:51:14;;;;;;;11.30;6.70;;;9.90;99.90;;;;;;5113839;28;20180;-64
2022/04/30 07:53:41;;;;;;;8.97;6.37;;;9.90;99.90;;;;;;5113879;28;20188;-69
2022/04/30 07:56:08;;;;;;;10.83;6.00;;;10.00;99.90;;;;;;5113899;28;20739;-68
2022/04/30 07:58:33;;;;;;;16.10;8.70;;;9.90;99.90;;;;;;5113049;28;20403;-65
2022/04/30 08:00:59;;;;;;;11.07;7.83;;;9.90;99.90;;;;;;5113527;28;20394;-69
2022/04/30 08:03:25;;;;;;;9.77;7.33;;;10.00;99.90;;;;;;5113756;28;20201;-69
2022/04/30 08:05:51;;;;;;;15.60;6.40;;;10.10;99.90;;;;;;5114016;28;20245;-65
2022/04/30 08:08:16;;;;;;;8.63;6.67;;;10.00;99.90;;;;;;5113658;28;20169;-67
2022/04/30 08:10:42;;;;;;;11.60;7.30;;;10.10;99.90;;;;;;5112950;28;20153;-68
2022/04/30 08:13:08;;;;;;;10.23;7.53;;;10.30;99.90;;;;;;5113954;28;20630;-64
2022/04/30 08:15:34;;;;;;;13.13;6.97;;;10.30;99.90;;;;;;5113940;28;20244;-64
2022/04/30 08:18:00;;;;;;;7.23;6.03;;;10.30;99.90;;;;;;5113164;28;20203;-65
2022/04/30 08:20:25;;;;;;;8.87;7.03;;;10.30;99.90;;;;;;5112884;28;20752;-68
2022/04/30 08:22:51;;;;;;;9.63;7.27;;;10.40;99.90;;;;;;5113378;28;20254;-64
2022/04/30 08:25:17;;;;;;;8.90;6.57;;;10.40;99.90;;;;;;5113639;28;20218;-69
2022/04/30 08:27:43;;;;;;;14.60;7.90;;;10.40;99.90;;;;;;5113678;28;20206;-63
2022/04/30 08:30:10;;;;;;;7.47;6.73;;;10.60;99.90;;;;;;5112703;28;20172;-68
2022/04/30 08:32:36;;;;;;;12.47;7.40;;;10.70;99.90;;;;;;5113555;28;20442;-68
2022/04/30 08:35:02;;;;;;;10.43;6.97;;;10.80;99.90;;;;;;5113243;28;20740;-68
2022/04/30 08:37:31;;;;;;;16.53;7.00;;;10.80;99.90;;;;;;5113482;28;20505;-68
2022/04/30 08:39:56;;;;;;;9.00;6.90;;;10.90;99.90;;;;;;5112393;28;20385;-69
2022/04/30 08:42:25;;;;;;;9.63;6.90;;;10.90;99.90;;;;;;5113429;28;20787;-69
2022/04/30 08:44:51;;;;;;;9.43;6.77;;;11.00;99.90;;;;;;5113721;28;20216;-68
2022/04/30 08:47:16;;;;;;;10.80;6.60;;;11.10;99.90;;;;;;5113585;28;20377;-63
2022/04/30 08:49:42;;;;;;;6.17;5.57;;;11.40;99.90;;;;;;5116294;28;20262;-64
2022/04/30 08:52:10;;;;;;;7.00;6.30;;;11.50;99.90;;;;;;5116857;28;20188;-64
2022/04/30 08:54:36;;;;;;;9.20;6.37;;;11.70;99.90;;;;;;5117236;28;20361;-68
2022/04/30 08:57:02;;;;;;;6.60;6.00;;;11.80;99.90;;;;;;5116452;28;20904;-69
2022/04/30 08:59:30;;;;;;;9.53;8.13;;;12.00;99.90;;;;;;5115975;28;20169;-69
2022/04/30 09:01:58;;;;;;;9.87;6.07;;;12.10;99.90;;;;;;5117009;28;20915;-64
2022/04/30 09:04:25;;;;;;;5.43;4.77;;;12.30;99.90;;;;;;5096535;28;20447;-68
2022/04/30 09:06:53;;;;;;;7.53;6.00;;;12.50;99.90;;;;;;5096944;28;20378;-64
2022/04/30 09:09:29;;;;;;;7.10;6.27;;;12.70;99.90;;;;;;5095983;28;20391;-68
2022/04/30 09:12:16;;;;;;;6.10;5.43;;;12.90;99.90;;;;;;5096141;28;20431;-64
2022/04/30 09:14:42;;;;;;;6.07;5.47;;;13.30;99.90;;;;;;5096655;28;20390;-63
2022/04/30 09:17:10;;;;;;;6.53;5.63;;;13.50;99.90;;;;;;5107076;28;20385;-63
2022/04/30 09:19:53;;;;;;;6.87;5.07;;;13.70;99.90;;;;;;5116032;28;20410;-69
2022/04/30 09:22:29;;;;;;;7.77;4.87;;;13.90;99.90;;;;;;5116430;28;20408;-69
2022/04/30 09:24:55;;;;;;;5.60;5.10;;;14.10;99.90;;;;;;5116771;28;20499;-68
2022/04/30 09:27:21;;;;;;;9.00;4.87;;;14.10;99.90;;;;;;5116855;28;20394;-63
2022/04/30 09:29:46;;;;;;;5.93;5.30;;;14.30;99.90;;;;;;5115494;28;20373;-67
2022/04/30 09:32:17;;;;;;;6.70;5.27;;;14.70;98.80;;;;;;5116633;28;20181;-68
2022/04/30 09:37:41;;;;;;;5.83;5.33;;;15.20;96.50;;;;;;5116938;28;20752;-69
2022/04/30 09:40:17;;;;;;;7.60;5.20;;;15.40;94.00;;;;;;5115480;28;20501;-68
2022/04/30 09:42:46;;;;;;;5.13;4.60;;;15.90;94.20;;;;;;5116260;28;20478;-69
2022/04/30 09:45:26;;;;;;;8.80;5.47;;;16.30;94.30;;;;;;5116251;28;20545;-65
2022/04/30 09:47:53;;;;;;;6.00;4.93;;;16.50;88.10;;;;;;5116152;28;20398;-68
2022/04/30 09:56:08;;;;;;;5.90;4.53;;;17.10;82.90;;;;;;5116539;28;20398;-68
2022/04/30 09:58:38;;;;;;;5.00;4.50;;;17.00;64.70;;;;;;5114563;28;20500;-65
2022/04/30 10:01:05;;;;;;;6.27;4.50;;;16.90;57.20;;;;;;5098022;28;20395;-64
2022/04/30 10:03:33;;;;;;;5.03;4.63;;;17.10;55.30;;;;;;5115450;28;20442;-69
2022/04/30 10:06:04;;;;;;;7.10;5.40;;;16.70;51.70;;;;;;5116090;28;20399;-64
2022/04/30 10:08:35;;;;;;;5.90;5.23;;;17.00;52.50;;;;;;5115021;28;20459;-71
2022/04/30 10:11:25;;;;;;;6.30;5.10;;;17.00;45.10;;;;;;5115779;28;20395;-64
2022/04/30 10:14:03;;;;;;;5.67;4.50;;;16.60;46.30;;;;;;5115941;28;20823;-69
2022/04/30 10:16:29;;;;;;;5.40;4.90;;;16.40;32.60;;;;;;5116057;28;20414;-69
2022/04/30 10:19:06;;;;;;;9.23;5.37;;;16.20;36.00;;;;;;5114789;28;20418;-68
2022/04/30 10:21:32;;;;;;;5.33;4.87;;;16.40;26.90;;;;;;5115185;28;20418;-68
2022/04/30 10:24:03;;;;;;;5.40;4.90;;;16.90;28.90;;;;;;5115374;28;20478;-64
2022/04/30 10:26:28;;;;;;;5.30;4.33;;;17.30;31.50;;;;;;5115694;28;20166;-64
2022/04/30 10:29:01;;;;;;;8.93;5.67;;;17.50;23.90;;;;;;5114616;28;20399;-69
2022/04/30 10:31:26;;;;;;;5.50;4.00;;;17.90;22.60;;;;;;5115516;28;20161;-68
2022/04/30 10:33:52;;;;;;;4.93;4.53;;;17.70;16.40;;;;;;5115614;28;20452;-64
2022/04/30 10:36:20;;;;;;;5.73;5.20;;;17.20;13.60;;;;;;5115004;28;20549;-64
2022/04/30 10:39:02;;;;;;;4.40;4.10;;;17.10;16.50;;;;;;5114589;28;20161;-64
2022/04/30 10:41:28;;;;;;;4.43;4.03;;;17.40;6.00;;;;;;5114767;28;20438;-65
2022/04/30 10:44:02;;;;;;;5.63;5.03;;;18.00;6.40;;;;;;5115341;28;20870;-69
2022/04/30 10:46:38;;;;;;;8.53;4.40;;;18.20;4.50;;;;;;5115266;28;20156;-64
2022/04/30 10:49:05;;;;;;;4.67;4.27;;;18.80;6.00;;;;;;5113722;28;20432;-69
2022/04/30 10:51:40;;;;;;;5.60;5.10;;;19.00;6.40;;;;;;5114988;28;20395;-69
2022/04/30 10:54:15;;;;;;;7.90;5.03;;;18.20;1.00;;;;;;5115275;28;20394;-69
2022/04/30 10:56:41;;;;;;;4.37;3.97;;;17.30;1.00;;;;;;5114805;28;20926;-65
2022/04/30 10:59:07;;;;;;;6.00;3.97;;;17.10;1.00;;;;;;5113602;28;20494;-70
2022/04/30 11:01:33;;;;;;;4.07;3.43;;;17.50;1.00;;;;;;5114760;28;20161;-69
2022/04/30 11:04:01;;;;;;;4.87;4.47;;;18.00;1.00;;;;;;5114322;28;20461;-69
2022/04/30 11:06:30;;;;;;;5.50;4.00;;;18.30;1.00;;;;;;5096269;28;20429;-70
2022/04/30 11:09:01;;;;;;;5.50;5.00;;;18.20;1.00;;;;;;5114007;28;20430;-70
2022/04/30 11:11:29;;;;;;;5.00;4.53;;;18.20;1.00;;;;;;5113687;28;20435;-70
2022/04/30 11:14:09;;;;;;;4.50;4.13;;;18.70;1.00;;;;;;5114582;28;20442;-65
2022/04/30 11:16:40;;;;;;;5.00;4.60;;;18.30;1.00;;;;;;5114661;28;20398;-65
2022/04/30 11:19:10;;;;;;;5.47;4.93;;;17.80;1.00;;;;;;5113414;28;20406;-69
2022/04/30 11:21:38;;;;;;;4.27;3.87;;;17.40;1.00;;;;;;5114089;28;20410;-69
2022/04/30 11:24:05;;;;;;;3.97;3.60;;;16.90;1.00;;;;;;5114562;28;20447;-69
2022/04/30 11:26:39;;;;;;;3.80;3.50;;;16.70;1.00;;;;;;5114667;28;20402;-64
2022/04/30 11:29:13;;;;;;;6.27;4.30;;;16.70;1.00;;;;;;5113487;28;20418;-64
2022/04/30 11:31:41;;;;;;;3.30;3.00;;;17.20;1.00;;;;;;5114285;28;20407;-65
2022/04/30 11:34:17;;;;;;;3.43;3.13;;;17.70;1.00;;;;;;5114137;28;20887;-69
2022/04/30 11:36:45;;;;;;;5.43;3.70;;;17.60;1.00;;;;;;5113899;28;20805;-64
2022/04/30 11:39:12;;;;;;;5.60;2.80;;;18.20;1.00;;;;;;5095427;28;20462;-69
2022/04/30 11:41:41;;;;;;;9.10;3.80;;;19.00;1.00;;;;;;5114103;28;20407;-70
2022/04/30 11:44:12;;;;;;;5.50;3.50;;;19.50;1.00;;;;;;5114398;28;20446;-69
2022/04/30 11:46:40;;;;;;;3.90;2.80;;;19.60;1.00;;;;;;5114164;28;20407;-64
2022/04/30 11:49:51;;;;;;;6.10;3.70;;;20.10;1.00;;;;;;5112855;28;20415;-65
2022/04/30 11:52:17;;;;;;;3.80;3.50;;;19.90;1.00;;;;;;5109326;28;20430;-65
2022/04/30 11:54:43;;;;;;;3.10;2.80;;;18.40;1.00;;;;;;5113890;28;20398;-66
2022/04/30 11:57:09;;;;;;;5.70;3.03;;;17.70;1.00;;;;;;5113672;28;20434;-69
2022/04/30 11:59:39;;;;;;;2.83;2.63;;;17.20;1.00;;;;;;5112945;28;20395;-65
2022/04/30 12:02:08;;;;;;;3.00;2.80;;;18.00;1.00;;;;;;5113502;28;20422;-69
2022/04/30 12:04:36;;;;;;;3.33;2.90;;;19.10;1.00;;;;;;5113933;28;20956;-69
2022/04/30 12:07:05;;;;;;;2.87;2.67;;;20.20;1.00;;;;;;5113896;28;20402;-69
2022/04/30 12:09:33;;;;;;;3.60;2.83;;;20.70;1.00;;;;;;5112899;28;20403;-70
2022/04/30 12:12:14;;;;;;;5.17;2.60;;;20.20;1.00;;;;;;5095219;28;20479;-65
2022/04/30 12:17:43;;;;;;;3.03;2.70;;;19.80;1.00;;;;;;5113635;28;20442;-69
2022/04/30 12:26:03;;;;;;;2.53;2.30;;;20.30;1.00;;;;;;5118434;28;20401;-65
2022/04/30 12:28:30;;;;;;;4.70;2.90;;;21.10;1.00;;;;;;5117032;28;20391;-71
2022/04/30 12:30:56;;;;;;;4.73;1.80;;;21.70;1.00;;;;;;5117565;28;20415;-70
2022/04/30 12:33:22;;;;;;;2.70;2.43;;;22.10;1.00;;;;;;5117860;28;20971;-65
2022/04/30 12:35:56;;;;;;;2.10;1.93;;;21.80;1.00;;;;;;5117864;28;20516;-65
2022/04/30 12:38:22;;;;;;;2.70;2.50;;;21.90;1.00;;;;;;5115428;28;20442;-66
2022/04/30 12:40:48;;;;;;;3.03;2.83;;;21.20;1.00;;;;;;5097897;28;20483;-64
2022/04/30 12:43:16;;;;;;;2.60;2.40;;;20.60;1.00;;;;;;5117149;28;20418;-70
2022/04/30 12:45:48;;;;;;;3.33;3.03;;;20.30;1.00;;;;;;5117095;28;20446;-69
2022/04/30 12:48:15;;;;;;;5.00;3.13;;;20.10;1.00;;;;;;5117411;28;20402;-65
2022/04/30 12:50:41;;;;;;;3.23;2.93;;;19.90;1.00;;;;;;5116585;28;20725;-64
2022/04/30 12:53:10;;;;;;;3.80;2.70;;;19.70;1.00;;;;;;5117324;28;20468;-71
2022/04/30 12:55:41;;;;;;;3.27;2.97;;;19.70;1.00;;;;;;5099081;28;20817;-65
2022/04/30 12:58:08;;;;;;;3.40;3.10;;;19.70;1.00;;;;;;5116385;28;20445;-66
2022/04/30 13:00:35;;;;;;;3.70;3.40;;;19.70;1.00;;;;;;5116382;28;20398;-65
2022/04/30 13:03:01;;;;;;;3.43;3.17;;;19.70;1.00;;;;;;5116825;28;20771;-70
2022/04/30 13:05:37;;;;;;;3.50;3.20;;;20.20;1.00;;;;;;5117221;28;20482;-64
2022/04/30 13:08:03;;;;;;;4.17;3.70;;;20.30;1.00;;;;;;5116963;28;20410;-65
2022/04/30 13:13:32;;;;;;;3.83;3.30;;;19.50;1.00;;;;;;5117043;28;20406;-69
2022/04/30 13:16:01;;;;;;;4.00;3.17;;;19.80;1.00;;;;;;5117096;28;20394;-64
2022/04/30 13:18:28;;;;;;;4.27;3.37;;;19.60;1.00;;;;;;5116826;28;20394;-65
2022/04/30 13:20:53;;;;;;;3.67;3.37;;;19.30;1.00;;;;;;5097716;28;20449;-69
2022/04/30 13:23:19;;;;;;;2.73;2.40;;;19.00;1.00;;;;;;5098237;28;20454;-69
2022/04/30 13:25:45;;;;;;;3.00;2.80;;;18.50;1.00;;;;;;5117074;28;20165;-64
2022/04/30 13:28:11;;;;;;;3.13;2.90;;;18.60;1.00;;;;;;5116784;28;20507;-64
2022/04/30 13:30:37;;;;;;;3.53;3.20;;;19.10;1.00;;;;;;5115829;28;20403;-65
2022/04/30 13:33:04;;;;;;;5.03;3.40;;;19.30;1.00;;;;;;5116260;28;20548;-64
2022/04/30 13:35:29;;;;;;;3.30;3.00;;;20.00;1.00;;;;;;5116109;28;20172;-64
2022/04/30 13:37:58;;;;;;;2.50;2.30;;;19.90;1.00;;;;;;5116036;28;20415;-69